Crossford, United Kingdom
Current Conditions -  °F | °C
As of 11:50 AM on Sunday 21 Dec 2014 (Local Time) from EGPH Reporting Station
Broken Clouds Broken Clouds  
Wind Chill: 52°   Ceiling: 1400
Heat Index: 52°   Visibility: 6mi
Dew Point: 48°   Wind: 25mph
Humidity: 88%   Direction: 240°WSW
Pressure: 29.8"   Gusts: NA
Location:  56.05°N, 3.5°W
Report Text: EGPH 211150Z 24022KT 9999 BKN014 11/09 Q1009
Loading
Personal Weather Stations






























Interactive Weather Map New forecast layout! Learn more

10-Day Weather Forecast

Advertisements
Track Severe Weather on mobile